createdAt,value
2016-12-12T00:00:16.690Z,925.91
2016-12-12T00:00:44.645Z,925.92
2016-12-12T00:01:12.546Z,925.9
2016-12-12T00:01:40.378Z,925.91
2016-12-12T00:02:08.276Z,925.9
2016-12-12T00:02:36.142Z,925.93
2016-12-12T00:03:04.025Z,925.9
2016-12-12T00:03:32.289Z,925.9
2016-12-12T00:04:00.194Z,925.89
2016-12-12T00:04:28.021Z,925.89
2016-12-12T00:04:55.850Z,925.87
2016-12-12T00:05:23.750Z,925.86
2016-12-12T00:05:51.583Z,925.84
2016-12-12T00:06:19.501Z,925.85
2016-12-12T00:06:47.416Z,925.87
2016-12-12T00:07:15.249Z,925.84
2016-12-12T00:07:43.166Z,925.81
2016-12-12T00:08:11.004Z,925.84
2016-12-12T00:08:39.027Z,925.84
2016-12-12T00:09:06.888Z,925.81
2016-12-12T00:09:34.749Z,925.82
2016-12-12T00:10:02.561Z,925.84
2016-12-12T00:10:30.417Z,925.82
2016-12-12T00:10:58.244Z,925.82
2016-12-12T00:11:26.113Z,925.81
2016-12-12T00:11:54.025Z,925.8
2016-12-12T00:12:21.911Z,925.77
2016-12-12T00:12:49.848Z,925.77
2016-12-12T00:13:18.105Z,925.76
2016-12-12T00:13:45.947Z,925.74
2016-12-12T00:14:13.800Z,925.73
2016-12-12T00:14:41.658Z,925.71
2016-12-12T00:15:09.523Z,925.69
2016-12-12T00:15:37.347Z,925.67
2016-12-12T00:16:05.209Z,925.69
2016-12-12T00:16:33.049Z,925.68
2016-12-12T00:17:00.878Z,925.63
2016-12-12T00:17:28.771Z,925.6
2016-12-12T00:17:56.645Z,925.6
2016-12-12T00:18:24.832Z,925.59
2016-12-12T00:18:52.671Z,925.59
2016-12-12T00:19:20.632Z,925.61
2016-12-12T00:19:48.485Z,925.57
2016-12-12T00:20:16.455Z,925.61
2016-12-12T00:20:44.323Z,925.58
2016-12-12T00:21:12.166Z,925.58
2016-12-12T00:21:40.092Z,925.56
2016-12-12T00:22:08.020Z,925.59
2016-12-12T00:22:35.896Z,925.56
2016-12-12T00:23:03.785Z,925.53
2016-12-12T00:23:31.851Z,925.54
2016-12-12T00:23:59.677Z,925.54
2016-12-12T00:24:27.606Z,925.56
2016-12-12T00:24:55.400Z,925.56
2016-12-12T00:25:23.293Z,925.58
2016-12-12T00:25:51.093Z,925.59
2016-12-12T00:26:18.975Z,925.6
2016-12-12T00:26:46.873Z,925.64
2016-12-12T00:27:14.732Z,925.63
2016-12-12T00:27:42.567Z,925.68
2016-12-12T00:28:10.550Z,925.67
2016-12-12T00:28:38.583Z,925.7
2016-12-12T00:29:06.419Z,925.71
2016-12-12T00:29:34.379Z,925.72
2016-12-12T00:30:02.221Z,925.72
2016-12-12T00:30:30.063Z,925.75
2016-12-12T00:30:57.920Z,925.77
2016-12-12T00:31:25.911Z,925.77
2016-12-12T00:31:53.870Z,925.75
2016-12-12T00:32:21.814Z,925.72
2016-12-12T00:32:49.621Z,925.72
2016-12-12T00:33:17.484Z,925.69
2016-12-12T00:33:45.567Z,925.67
2016-12-12T00:34:13.505Z,925.68
2016-12-12T00:34:41.339Z,925.68
2016-12-12T00:35:09.218Z,925.68
2016-12-12T00:35:37.090Z,925.66
2016-12-12T00:36:04.900Z,925.65
2016-12-12T00:36:32.711Z,925.66
2016-12-12T00:37:00.540Z,925.69
2016-12-12T00:37:28.400Z,925.7
2016-12-12T00:37:56.337Z,925.71
2016-12-12T00:39:19.604Z,925.65
2016-12-12T00:39:48.205Z,925.66
2016-12-12T00:40:18.938Z,925.7
2016-12-12T00:40:48.201Z,925.67
2016-12-12T00:41:17.740Z,925.68
2016-12-12T00:41:47.316Z,925.67
2016-12-12T00:42:15.982Z,925.66
2016-12-12T00:42:47.479Z,925.66
2016-12-12T00:43:15.315Z,925.66
2016-12-12T00:43:43.211Z,925.68
2016-12-12T00:44:11.240Z,925.7
2016-12-12T00:44:39.199Z,925.7
2016-12-12T00:45:07.150Z,925.74
2016-12-12T00:45:35.008Z,925.71
2016-12-12T00:46:02.890Z,925.74
2016-12-12T00:46:30.739Z,925.71
2016-12-12T00:46:58.563Z,925.71
2016-12-12T00:47:26.435Z,925.72
2016-12-12T00:47:54.254Z,925.72
2016-12-12T00:48:22.117Z,925.68
2016-12-12T00:48:50.021Z,925.68
2016-12-12T00:49:18.134Z,925.62
2016-12-12T00:49:46.104Z,925.61
2016-12-12T00:50:13.892Z,925.61
2016-12-12T00:50:41.835Z,925.56
2016-12-12T00:51:09.684Z,925.55
2016-12-12T00:51:37.494Z,925.51
2016-12-12T00:52:05.360Z,925.52
2016-12-12T00:52:33.198Z,925.52
2016-12-12T00:53:01.102Z,925.5
2016-12-12T00:53:28.952Z,925.47
2016-12-12T00:53:56.729Z,925.48
2016-12-12T00:54:24.874Z,925.48
2016-12-12T00:54:52.716Z,925.45
2016-12-12T00:55:20.557Z,925.46
2016-12-12T00:55:48.431Z,925.5
2016-12-12T00:56:16.308Z,925.5
2016-12-12T00:56:44.244Z,925.52
2016-12-12T00:57:12.128Z,925.51
2016-12-12T00:57:39.973Z,925.53
2016-12-12T00:58:07.835Z,925.52
2016-12-12T00:58:35.660Z,925.5
2016-12-12T00:59:03.578Z,925.51
2016-12-12T00:59:31.663Z,925.54
2016-12-12T00:59:59.520Z,925.54
2016-12-12T01:00:27.366Z,925.55
2016-12-12T01:00:55.256Z,925.54
2016-12-12T01:01:23.131Z,925.55
2016-12-12T01:01:50.967Z,925.56
2016-12-12T01:02:18.797Z,925.56
2016-12-12T01:02:46.619Z,925.55
2016-12-12T01:03:14.454Z,925.54
2016-12-12T01:03:42.230Z,925.56
2016-12-12T01:04:10.116Z,925.55
2016-12-12T01:04:38.237Z,925.53
2016-12-12T01:05:06.091Z,925.54
2016-12-12T01:05:33.926Z,925.55
2016-12-12T01:06:01.962Z,925.53
2016-12-12T01:06:29.819Z,925.57
2016-12-12T01:06:57.738Z,925.57
2016-12-12T01:07:25.613Z,925.59
2016-12-12T01:07:53.596Z,925.63
2016-12-12T01:08:21.513Z,925.59
2016-12-12T01:08:49.461Z,925.64
2016-12-12T01:09:17.614Z,925.62
2016-12-12T01:09:45.515Z,925.61
2016-12-12T01:10:13.364Z,925.63
2016-12-12T01:10:41.191Z,925.6
2016-12-12T01:11:09.050Z,925.6
2016-12-12T01:11:36.991Z,925.58
2016-12-12T01:12:04.796Z,925.64
2016-12-12T01:12:32.604Z,925.62
2016-12-12T01:13:00.515Z,925.57
2016-12-12T01:13:28.460Z,925.57
2016-12-12T01:13:56.304Z,925.62
2016-12-12T01:14:24.369Z,925.58
2016-12-12T01:14:52.269Z,925.59
2016-12-12T01:15:20.155Z,925.61
2016-12-12T01:15:48.111Z,925.59
2016-12-12T01:16:16.020Z,925.61
2016-12-12T01:16:43.885Z,925.59
2016-12-12T01:17:12.294Z,925.56
2016-12-12T01:17:40.239Z,925.52
2016-12-12T01:18:08.133Z,925.52
2016-12-12T01:18:35.998Z,925.48
2016-12-12T01:19:03.841Z,925.47
2016-12-12T01:19:31.961Z,925.48
2016-12-12T01:19:59.752Z,925.46
2016-12-12T01:20:27.697Z,925.47
2016-12-12T01:20:55.601Z,925.49
2016-12-12T01:21:23.740Z,925.46
2016-12-12T01:21:51.598Z,925.45
2016-12-12T01:22:19.489Z,925.42
2016-12-12T01:22:47.329Z,925.43
2016-12-12T01:23:15.155Z,925.43
2016-12-12T01:23:42.992Z,925.42
2016-12-12T01:24:10.848Z,925.41
2016-12-12T01:24:38.977Z,925.41
2016-12-12T01:25:06.845Z,925.4
2016-12-12T01:25:34.680Z,925.42
2016-12-12T01:26:02.501Z,925.41
2016-12-12T01:26:30.394Z,925.42
2016-12-12T01:26:58.223Z,925.37
2016-12-12T01:27:26.091Z,925.39
2016-12-12T01:27:54.013Z,925.44
2016-12-12T01:28:22.011Z,925.4
2016-12-12T01:28:49.982Z,925.43
2016-12-12T01:29:18.011Z,925.45
2016-12-12T01:29:46.098Z,925.45
2016-12-12T01:30:13.956Z,925.42
2016-12-12T01:30:41.821Z,925.42
2016-12-12T01:31:09.674Z,925.43
2016-12-12T01:31:37.637Z,925.41
2016-12-12T01:32:05.519Z,925.43
2016-12-12T01:32:33.504Z,925.44
2016-12-12T01:33:01.407Z,925.46
2016-12-12T01:33:29.282Z,925.45
2016-12-12T01:33:57.135Z,925.47
2016-12-12T01:34:25.217Z,925.46
2016-12-12T01:34:53.055Z,925.45
2016-12-12T01:35:20.885Z,925.5
2016-12-12T01:35:48.720Z,925.53
2016-12-12T01:36:16.593Z,925.48
2016-12-12T01:36:44.482Z,925.53
2016-12-12T01:37:12.373Z,925.54
2016-12-12T01:37:40.384Z,925.54
2016-12-12T01:38:08.338Z,925.56
2016-12-12T01:38:36.164Z,925.55
2016-12-12T01:39:04.043Z,925.58
2016-12-12T01:39:32.097Z,925.54
2016-12-12T01:40:00.033Z,925.57
2016-12-12T01:40:27.900Z,925.54
2016-12-12T01:40:55.851Z,925.56
2016-12-12T01:41:23.759Z,925.52
2016-12-12T01:41:51.643Z,925.52
2016-12-12T01:42:19.477Z,925.53
2016-12-12T01:42:47.458Z,925.5
2016-12-12T01:43:15.293Z,925.49
2016-12-12T01:43:43.142Z,925.5
2016-12-12T01:44:11.051Z,925.49
2016-12-12T01:44:39.193Z,925.48
2016-12-12T01:45:07.067Z,925.46
2016-12-12T01:45:35.084Z,925.47
2016-12-12T01:46:02.909Z,925.47
2016-12-12T01:46:30.782Z,925.45
2016-12-12T01:46:58.672Z,925.46
2016-12-12T01:47:26.516Z,925.41
2016-12-12T01:47:54.353Z,925.42
2016-12-12T01:48:22.208Z,925.45
2016-12-12T01:48:50.126Z,925.43
2016-12-12T01:49:17.937Z,925.43
2016-12-12T01:49:46.000Z,925.43
2016-12-12T01:50:13.819Z,925.39
2016-12-12T01:50:41.703Z,925.4
2016-12-12T01:51:09.588Z,925.36
2016-12-12T01:51:37.452Z,925.36
2016-12-12T01:52:05.341Z,925.32
2016-12-12T01:52:33.200Z,925.34
2016-12-12T01:53:01.057Z,925.34
2016-12-12T01:53:28.878Z,925.31
2016-12-12T01:53:56.749Z,925.33
2016-12-12T01:54:24.663Z,925.31
2016-12-12T01:54:52.839Z,925.28
2016-12-12T01:55:20.690Z,925.3
2016-12-12T01:55:48.602Z,925.27
2016-12-12T01:56:16.533Z,925.25
2016-12-12T01:56:44.366Z,925.26
2016-12-12T01:57:12.236Z,925.24
2016-12-12T01:57:40.096Z,925.26
2016-12-12T01:58:07.913Z,925.25
2016-12-12T01:58:35.760Z,925.24
2016-12-12T01:59:03.619Z,925.24
2016-12-12T01:59:31.812Z,925.24
2016-12-12T01:59:59.701Z,925.23
2016-12-12T02:00:27.566Z,925.23
2016-12-12T02:00:55.587Z,925.22
2016-12-12T02:01:23.471Z,925.21
2016-12-12T02:01:51.369Z,925.21
2016-12-12T02:02:19.233Z,925.26
2016-12-12T02:02:47.100Z,925.24
2016-12-12T02:03:14.971Z,925.26
2016-12-12T02:03:42.793Z,925.25
2016-12-12T02:04:10.661Z,925.27
2016-12-12T02:04:38.927Z,925.24
2016-12-12T02:05:06.878Z,925.22
2016-12-12T02:05:34.790Z,925.22
2016-12-12T02:06:02.593Z,925.25
2016-12-12T02:06:30.397Z,925.22
2016-12-12T02:06:58.300Z,925.22
2016-12-12T02:07:26.160Z,925.23
2016-12-12T02:07:54.031Z,925.25
2016-12-12T02:08:21.912Z,925.22
2016-12-12T02:08:49.758Z,925.22
2016-12-12T02:09:17.662Z,925.19
2016-12-12T02:09:45.722Z,925.17
2016-12-12T02:10:13.555Z,925.2
2016-12-12T02:10:41.431Z,925.19
2016-12-12T02:11:09.268Z,925.15
2016-12-12T02:11:37.097Z,925.13
2016-12-12T02:12:04.982Z,925.15
2016-12-12T02:12:32.832Z,925.14
2016-12-12T02:13:00.752Z,925.17
2016-12-12T02:13:28.683Z,925.11
2016-12-12T02:13:56.539Z,925.14
2016-12-12T02:14:24.421Z,925.09
2016-12-12T02:14:52.498Z,925.05
2016-12-12T02:15:20.311Z,925.07
2016-12-12T02:15:48.158Z,925.08
2016-12-12T02:16:16.035Z,925.07
2016-12-12T02:16:43.911Z,925.06
2016-12-12T02:17:11.794Z,925.05
2016-12-12T02:17:39.794Z,925.03
2016-12-12T02:18:07.627Z,925.01
2016-12-12T02:18:35.421Z,925.02
2016-12-12T02:19:03.259Z,925.03
2016-12-12T02:19:31.121Z,924.99
2016-12-12T02:19:59.182Z,925.02
2016-12-12T02:20:27.042Z,925
2016-12-12T02:20:54.895Z,924.98
2016-12-12T02:21:22.695Z,924.99
2016-12-12T02:21:50.520Z,924.95
2016-12-12T02:22:18.377Z,924.97
2016-12-12T02:22:46.235Z,924.98
2016-12-12T02:23:14.235Z,924.98
2016-12-12T02:23:42.114Z,924.93
2016-12-12T02:24:09.965Z,924.9
2016-12-12T02:24:37.999Z,924.92
2016-12-12T02:25:05.876Z,924.9
2016-12-12T02:25:33.694Z,924.9
2016-12-12T02:26:01.635Z,924.89
2016-12-12T02:26:29.492Z,924.87
2016-12-12T02:26:57.334Z,924.88
2016-12-12T02:27:25.186Z,924.88
2016-12-12T02:27:53.057Z,924.91
2016-12-12T02:28:20.881Z,924.89
2016-12-12T02:28:48.729Z,924.89
2016-12-12T02:29:16.543Z,924.94
2016-12-12T02:29:44.716Z,924.95
2016-12-12T02:30:12.558Z,924.94
2016-12-12T02:30:40.441Z,924.91
2016-12-12T02:31:08.322Z,924.93
2016-12-12T02:31:36.208Z,924.95
2016-12-12T02:32:04.005Z,924.96
2016-12-12T02:32:31.824Z,924.94
2016-12-12T02:32:59.671Z,924.94
2016-12-12T02:33:27.506Z,924.92
2016-12-12T02:33:55.379Z,924.89
2016-12-12T02:34:23.200Z,924.94
2016-12-12T02:34:51.226Z,924.92
2016-12-12T02:35:19.120Z,924.89
2016-12-12T02:35:46.975Z,924.86
2016-12-12T02:36:14.806Z,924.88
2016-12-12T02:36:42.668Z,924.85
2016-12-12T02:37:10.531Z,924.81
2016-12-12T02:37:38.376Z,924.81
2016-12-12T02:38:06.241Z,924.77
2016-12-12T02:38:34.615Z,924.76
2016-12-12T02:39:02.448Z,924.78
2016-12-12T02:39:30.309Z,924.73
2016-12-12T02:39:58.421Z,924.74
2016-12-12T02:40:26.353Z,924.75
2016-12-12T02:40:54.204Z,924.71
2016-12-12T02:41:22.032Z,924.74
2016-12-12T02:41:49.883Z,924.69
2016-12-12T02:42:17.712Z,924.71
2016-12-12T02:42:45.577Z,924.7
2016-12-12T02:43:13.427Z,924.67
2016-12-12T02:43:41.251Z,924.68
2016-12-12T02:44:09.100Z,924.66
2016-12-12T02:44:36.996Z,924.62
2016-12-12T02:45:05.023Z,924.6
2016-12-12T02:45:32.868Z,924.59
2016-12-12T02:46:00.710Z,924.57
2016-12-12T02:46:28.603Z,924.57
2016-12-12T02:46:56.423Z,924.55
2016-12-12T02:47:24.227Z,924.53
2016-12-12T02:47:52.114Z,924.53
2016-12-12T02:48:19.948Z,924.49
2016-12-12T02:48:47.825Z,924.49
2016-12-12T02:49:15.692Z,924.5
2016-12-12T02:49:43.543Z,924.46
2016-12-12T02:50:11.624Z,924.46
2016-12-12T02:50:39.416Z,924.46
2016-12-12T02:51:07.271Z,924.47
2016-12-12T02:51:35.189Z,924.48
2016-12-12T02:52:03.089Z,924.5
2016-12-12T02:52:30.965Z,924.49
2016-12-12T02:52:58.828Z,924.5
2016-12-12T02:53:26.667Z,924.55
2016-12-12T02:53:54.505Z,924.55
2016-12-12T02:54:22.330Z,924.55
2016-12-12T02:54:50.376Z,924.52
2016-12-12T02:55:18.266Z,924.59
2016-12-12T02:55:46.098Z,924.57
2016-12-12T02:56:13.956Z,924.53
2016-12-12T02:56:41.816Z,924.56
2016-12-12T02:57:09.653Z,924.56
2016-12-12T02:57:37.585Z,924.57
2016-12-12T02:58:05.458Z,924.56
2016-12-12T02:58:33.285Z,924.53
2016-12-12T02:59:01.119Z,924.51
2016-12-12T02:59:29.097Z,924.54
2016-12-12T02:59:57.190Z,924.53
2016-12-12T03:00:25.055Z,924.53
2016-12-12T03:00:52.876Z,924.53
2016-12-12T03:01:20.763Z,924.53
2016-12-12T03:01:48.604Z,924.55
2016-12-12T03:02:16.440Z,924.57
2016-12-12T03:02:44.392Z,924.56
2016-12-12T03:03:12.265Z,924.53
2016-12-12T03:03:40.120Z,924.55
2016-12-12T03:04:07.930Z,924.54
2016-12-12T03:04:35.858Z,924.54
2016-12-12T03:05:03.877Z,924.53
2016-12-12T03:05:31.708Z,924.54
2016-12-12T03:05:59.540Z,924.53
2016-12-12T03:06:27.389Z,924.51
2016-12-12T03:06:55.345Z,924.52
2016-12-12T03:07:23.189Z,924.53
2016-12-12T03:07:51.042Z,924.52
2016-12-12T03:08:18.888Z,924.54
2016-12-12T03:08:46.766Z,924.51
2016-12-12T03:09:14.602Z,924.5
2016-12-12T03:09:42.428Z,924.46
2016-12-12T03:10:10.489Z,924.53
2016-12-12T03:10:38.360Z,924.5
2016-12-12T03:11:06.225Z,924.48
2016-12-12T03:11:34.094Z,924.5
2016-12-12T03:12:01.961Z,924.49
2016-12-12T03:12:29.807Z,924.48
2016-12-12T03:12:57.662Z,924.42
2016-12-12T03:13:25.483Z,924.45
2016-12-12T03:13:53.468Z,924.43
2016-12-12T03:14:21.340Z,924.42
2016-12-12T03:14:49.228Z,924.45
2016-12-12T03:15:17.331Z,924.43
2016-12-12T03:15:45.173Z,924.39
2016-12-12T03:16:13.044Z,924.35
2016-12-12T03:16:40.900Z,924.37
2016-12-12T03:17:08.757Z,924.31
2016-12-12T03:17:36.580Z,924.33
2016-12-12T03:18:04.418Z,924.31
2016-12-12T03:18:32.372Z,924.3
2016-12-12T03:19:00.205Z,924.27
2016-12-12T03:19:28.037Z,924.27
2016-12-12T03:19:56.098Z,924.25
2016-12-12T03:20:23.985Z,924.24
2016-12-12T03:20:51.863Z,924.22
2016-12-12T03:21:19.705Z,924.21
2016-12-12T03:21:47.576Z,924.19
2016-12-12T03:22:15.440Z,924.18
2016-12-12T03:22:43.269Z,924.18
2016-12-12T03:23:11.118Z,924.14
2016-12-12T03:23:38.975Z,924.19
2016-12-12T03:24:06.779Z,924.14
2016-12-12T03:24:34.634Z,924.13
2016-12-12T03:25:02.667Z,924.13
2016-12-12T03:25:30.580Z,924.08
2016-12-12T03:25:58.409Z,924.14
2016-12-12T03:26:26.220Z,924.09
2016-12-12T03:26:54.051Z,924.1
2016-12-12T03:27:21.848Z,924.12
2016-12-12T03:27:49.674Z,924.11
2016-12-12T03:28:17.519Z,924.05
2016-12-12T03:28:45.348Z,924.09
2016-12-12T03:29:13.192Z,924.09
2016-12-12T03:29:41.021Z,924.1
2016-12-12T03:30:09.124Z,924.11
2016-12-12T03:30:37.020Z,924.08
2016-12-12T03:31:04.845Z,924.11
2016-12-12T03:31:32.702Z,924.08
2016-12-12T03:32:00.538Z,924.1
2016-12-12T03:32:28.358Z,924.08
2016-12-12T03:32:56.212Z,924.04
2016-12-12T03:33:24.054Z,924.04
2016-12-12T03:33:51.999Z,924.04
2016-12-12T03:34:19.837Z,924.04
2016-12-12T03:34:47.636Z,924.04
2016-12-12T03:35:15.724Z,924.02
2016-12-12T03:35:43.524Z,924
2016-12-12T03:36:11.351Z,924.01
2016-12-12T03:36:39.205Z,924.03
2016-12-12T03:37:07.059Z,924.04
2016-12-12T03:37:34.935Z,924.01
2016-12-12T03:38:02.783Z,924.02
2016-12-12T03:38:30.848Z,924.07
2016-12-12T03:38:58.662Z,924.03
2016-12-12T03:39:26.607Z,924.02
2016-12-12T03:39:54.482Z,924.01
2016-12-12T03:40:22.539Z,924
2016-12-12T03:40:50.388Z,924.01
2016-12-12T03:41:18.256Z,924.01
2016-12-12T03:41:46.070Z,924.02
2016-12-12T03:42:13.909Z,923.99
2016-12-12T03:42:41.814Z,923.99
2016-12-12T03:43:09.668Z,924.01
2016-12-12T03:43:37.518Z,923.99
2016-12-12T03:44:05.382Z,923.97
2016-12-12T03:44:33.198Z,924
2016-12-12T03:45:01.020Z,923.95
2016-12-12T03:45:29.188Z,923.95
2016-12-12T03:45:57.062Z,923.96
2016-12-12T03:46:24.944Z,923.94
2016-12-12T03:46:52.772Z,923.98
2016-12-12T03:47:20.697Z,923.96
2016-12-12T03:47:48.513Z,923.96
2016-12-12T03:48:16.375Z,923.94
2016-12-12T03:48:44.193Z,923.94
2016-12-12T03:49:12.037Z,923.96
2016-12-12T03:49:39.851Z,923.95
2016-12-12T03:50:07.731Z,923.94
2016-12-12T03:50:35.771Z,923.89
2016-12-12T03:51:03.631Z,923.9
2016-12-12T03:51:31.435Z,923.9
2016-12-12T03:51:59.254Z,923.87
2016-12-12T03:52:27.091Z,923.86
2016-12-12T03:52:55.059Z,923.84
2016-12-12T03:53:22.909Z,923.86
2016-12-12T03:53:50.792Z,923.85
2016-12-12T03:54:18.625Z,923.77
2016-12-12T03:54:46.568Z,923.83
2016-12-12T03:55:14.635Z,923.82
2016-12-12T03:55:42.469Z,923.86
2016-12-12T03:56:10.329Z,923.87
2016-12-12T03:56:38.144Z,923.87
2016-12-12T03:57:05.981Z,923.83
2016-12-12T03:57:33.793Z,923.85
2016-12-12T03:58:01.760Z,923.82
2016-12-12T03:58:29.668Z,923.86
2016-12-12T03:58:57.501Z,923.88
2016-12-12T03:59:25.364Z,923.86
2016-12-12T03:59:53.192Z,923.87
2016-12-12T04:00:21.260Z,923.82
2016-12-12T04:00:49.106Z,923.87
2016-12-12T04:01:16.945Z,923.89
2016-12-12T04:01:44.797Z,923.82
2016-12-12T04:02:12.715Z,923.83
2016-12-12T04:02:40.593Z,923.83
2016-12-12T04:03:08.509Z,923.87
2016-12-12T04:03:36.427Z,923.83
2016-12-12T04:04:04.300Z,923.84
2016-12-12T04:04:32.176Z,923.83
2016-12-12T04:04:59.995Z,923.84
2016-12-12T04:05:28.025Z,923.81
2016-12-12T04:05:55.849Z,923.83
2016-12-12T04:06:23.713Z,923.8
2016-12-12T04:06:51.583Z,923.81
2016-12-12T04:07:19.544Z,923.79
2016-12-12T04:07:47.407Z,923.85
2016-12-12T04:08:15.239Z,923.82
2016-12-12T04:08:43.097Z,923.8
2016-12-12T04:09:10.901Z,923.8
2016-12-12T04:09:38.773Z,923.83
2016-12-12T04:10:06.601Z,923.83
2016-12-12T04:10:34.652Z,923.83
2016-12-12T04:11:02.614Z,923.82
2016-12-12T04:11:30.502Z,923.85
2016-12-12T04:11:58.358Z,923.86
2016-12-12T04:12:26.175Z,923.83
2016-12-12T04:12:54.081Z,923.81
2016-12-12T04:13:21.901Z,923.82
2016-12-12T04:13:49.791Z,923.87
2016-12-12T04:14:17.649Z,923.84
2016-12-12T04:14:45.484Z,923.83
2016-12-12T04:15:13.331Z,923.81
2016-12-12T04:15:41.355Z,923.81
2016-12-12T04:16:09.264Z,923.84
2016-12-12T04:16:37.115Z,923.83
2016-12-12T04:17:04.945Z,923.82
2016-12-12T04:17:32.816Z,923.82
2016-12-12T04:18:00.697Z,923.82
2016-12-12T04:18:28.540Z,923.79
2016-12-12T04:18:56.414Z,923.77
2016-12-12T04:19:24.237Z,923.81
2016-12-12T04:19:52.119Z,923.78
2016-12-12T04:20:19.964Z,923.78
2016-12-12T04:20:48.152Z,923.83
2016-12-12T04:21:16.178Z,923.83
2016-12-12T04:21:44.011Z,923.83
2016-12-12T04:22:11.864Z,923.85
2016-12-12T04:22:39.741Z,923.85
2016-12-12T04:23:07.585Z,923.83
2016-12-12T04:23:35.437Z,923.84
2016-12-12T04:24:03.489Z,923.82
2016-12-12T04:24:31.395Z,923.83
2016-12-12T04:24:59.373Z,923.83
2016-12-12T04:25:27.419Z,923.84
2016-12-12T04:25:55.299Z,923.84
2016-12-12T04:26:23.141Z,923.8
2016-12-12T04:26:51.091Z,923.83
2016-12-12T04:27:18.940Z,923.83
2016-12-12T04:27:46.733Z,923.79
2016-12-12T04:28:14.588Z,923.8
2016-12-12T04:28:42.453Z,923.81
2016-12-12T04:29:10.309Z,923.79
2016-12-12T04:29:38.166Z,923.79
2016-12-12T04:30:05.966Z,923.8
2016-12-12T04:30:34.055Z,923.8
2016-12-12T04:31:01.915Z,923.79
2016-12-12T04:31:29.769Z,923.79
2016-12-12T04:31:57.633Z,923.8
2016-12-12T04:32:25.474Z,923.82
2016-12-12T04:32:53.308Z,923.81
2016-12-12T04:33:21.182Z,923.82
2016-12-12T04:33:49.038Z,923.76
2016-12-12T04:34:16.878Z,923.76
2016-12-12T04:34:44.704Z,923.81
2016-12-12T04:35:12.572Z,923.79
2016-12-12T04:35:40.693Z,923.76
2016-12-12T04:36:08.521Z,923.73
2016-12-12T04:36:36.394Z,923.75
2016-12-12T04:37:04.280Z,923.74
2016-12-12T04:37:32.154Z,923.73
2016-12-12T04:37:59.998Z,923.69
2016-12-12T04:38:27.842Z,923.73
2016-12-12T04:38:55.787Z,923.72
2016-12-12T04:39:23.610Z,923.75
2016-12-12T04:39:51.448Z,923.75
2016-12-12T04:40:19.345Z,923.73
2016-12-12T04:40:47.394Z,923.71
2016-12-12T04:41:15.370Z,923.72
2016-12-12T04:41:43.251Z,923.72
2016-12-12T04:42:11.201Z,923.7
2016-12-12T04:42:39.091Z,923.75
2016-12-12T04:43:06.943Z,923.72
2016-12-12T04:43:34.781Z,923.72
2016-12-12T04:44:02.621Z,923.73
2016-12-12T04:44:30.422Z,923.73
2016-12-12T04:44:58.250Z,923.73
2016-12-12T04:45:26.068Z,923.75
2016-12-12T04:45:54.539Z,923.73
2016-12-12T04:46:22.376Z,923.74
2016-12-12T04:46:50.253Z,923.79
2016-12-12T04:47:18.110Z,923.72
2016-12-12T04:47:45.978Z,923.74
2016-12-12T04:48:13.817Z,923.7
2016-12-12T04:48:41.731Z,923.7
2016-12-12T04:49:09.636Z,923.7
2016-12-12T04:49:37.510Z,923.67
2016-12-12T04:50:05.380Z,923.64
2016-12-12T04:50:33.426Z,923.61
2016-12-12T04:51:01.292Z,923.61
2016-12-12T04:51:29.087Z,923.6
2016-12-12T04:51:56.924Z,923.57
2016-12-12T04:52:24.708Z,923.57
2016-12-12T04:52:52.553Z,923.54
2016-12-12T04:53:20.507Z,923.55
2016-12-12T04:53:48.366Z,923.57
2016-12-12T04:54:16.191Z,923.57
2016-12-12T04:54:44.006Z,923.51
2016-12-12T04:55:11.841Z,923.55
2016-12-12T04:55:39.942Z,923.54
2016-12-12T04:56:07.809Z,923.54
2016-12-12T04:56:35.660Z,923.58
2016-12-12T04:57:03.529Z,923.54
2016-12-12T04:57:31.483Z,923.56
2016-12-12T04:57:59.370Z,923.56
2016-12-12T04:58:27.230Z,923.53
2016-12-12T04:58:55.044Z,923.53
2016-12-12T04:59:22.907Z,923.5
2016-12-12T04:59:50.781Z,923.5
2016-12-12T05:00:18.653Z,923.51
2016-12-12T05:00:46.685Z,923.52
2016-12-12T05:01:14.529Z,923.56
2016-12-12T05:01:42.413Z,923.55
2016-12-12T05:02:10.258Z,923.55
2016-12-12T05:02:38.144Z,923.55
2016-12-12T05:03:06.008Z,923.56
2016-12-12T05:03:33.984Z,923.55
2016-12-12T05:04:01.900Z,923.54
2016-12-12T05:04:29.774Z,923.53
2016-12-12T05:04:57.608Z,923.52
2016-12-12T05:05:25.445Z,923.53
2016-12-12T05:05:53.551Z,923.51
2016-12-12T05:06:21.405Z,923.52
2016-12-12T05:06:49.272Z,923.53
2016-12-12T05:07:17.089Z,923.5
2016-12-12T05:07:44.892Z,923.52
2016-12-12T05:08:12.789Z,923.47
2016-12-12T05:08:40.626Z,923.46
2016-12-12T05:09:08.455Z,923.47
2016-12-12T05:09:36.322Z,923.44
2016-12-12T05:10:04.179Z,923.43
2016-12-12T05:10:32.014Z,923.44
2016-12-12T05:11:00.086Z,923.46
2016-12-12T05:11:27.919Z,923.44
2016-12-12T05:11:55.739Z,923.45
2016-12-12T05:12:23.588Z,923.4
2016-12-12T05:12:51.416Z,923.38
2016-12-12T05:13:19.249Z,923.41
2016-12-12T05:13:47.196Z,923.39
2016-12-12T05:14:15.032Z,923.4
2016-12-12T05:14:42.896Z,923.38
2016-12-12T05:15:10.773Z,923.38
2016-12-12T05:15:38.793Z,923.35
2016-12-12T05:16:06.644Z,923.35
2016-12-12T05:16:34.495Z,923.32
2016-12-12T05:17:02.391Z,923.3
2016-12-12T05:17:30.198Z,923.3
2016-12-12T05:17:58.052Z,923.29
2016-12-12T05:18:25.962Z,923.29
2016-12-12T05:18:53.813Z,923.3
2016-12-12T05:19:21.652Z,923.25
2016-12-12T05:19:49.506Z,923.26
2016-12-12T05:20:17.293Z,923.25
2016-12-12T05:20:45.418Z,923.25
2016-12-12T05:21:13.237Z,923.28
2016-12-12T05:21:41.114Z,923.25
2016-12-12T05:22:08.990Z,923.25
2016-12-12T05:22:36.846Z,923.26
2016-12-12T05:23:04.728Z,923.28
2016-12-12T05:23:32.621Z,923.25
2016-12-12T05:24:00.435Z,923.27
2016-12-12T05:24:28.252Z,923.25
2016-12-12T05:24:56.115Z,923.25
2016-12-12T05:25:23.974Z,923.22
2016-12-12T05:25:52.026Z,923.26
2016-12-12T05:26:19.921Z,923.21
2016-12-12T05:26:47.756Z,923.24
2016-12-12T05:27:15.619Z,923.21
2016-12-12T05:27:43.453Z,923.22
2016-12-12T05:28:11.275Z,923.24
2016-12-12T05:28:39.113Z,923.27
2016-12-12T05:29:06.918Z,923.28
2016-12-12T05:29:34.781Z,923.23
2016-12-12T05:30:02.708Z,923.2
2016-12-12T05:30:30.595Z,923.24
2016-12-12T05:30:58.821Z,923.21
2016-12-12T05:31:26.757Z,923.22
2016-12-12T05:31:54.616Z,923.21
2016-12-12T05:32:22.567Z,923.2
2016-12-12T05:32:50.536Z,923.19
2016-12-12T05:33:18.381Z,923.2
2016-12-12T05:33:46.369Z,923.21
2016-12-12T05:34:14.260Z,923.21
2016-12-12T05:34:42.255Z,923.22
2016-12-12T05:35:10.161Z,923.18
2016-12-12T05:35:38.077Z,923.21
2016-12-12T05:36:06.151Z,923.16
2016-12-12T05:36:34.081Z,923.19
2016-12-12T05:37:01.983Z,923.15
2016-12-12T05:37:29.849Z,923.16
2016-12-12T05:37:58.287Z,923.16
2016-12-12T05:38:26.270Z,923.14
2016-12-12T05:38:54.107Z,923.14
2016-12-12T05:39:22.064Z,923.1
2016-12-12T05:39:49.900Z,923.08
2016-12-12T05:40:17.720Z,923.06
2016-12-12T05:40:45.938Z,923.04
2016-12-12T05:41:13.902Z,923.03
2016-12-12T05:41:41.846Z,922.98
2016-12-12T05:42:09.688Z,922.99
2016-12-12T05:42:37.620Z,923.03
2016-12-12T05:43:05.450Z,922.98
2016-12-12T05:43:33.331Z,922.97
2016-12-12T05:44:01.150Z,922.97
2016-12-12T05:44:28.981Z,922.97
2016-12-12T05:44:56.884Z,922.99
2016-12-12T05:45:24.876Z,923.03
2016-12-12T05:45:53.040Z,922.99
2016-12-12T05:46:20.857Z,923.04
2016-12-12T05:46:48.714Z,923.05
2016-12-12T05:47:16.543Z,923.04
2016-12-12T05:47:44.359Z,923.06
2016-12-12T05:48:12.230Z,923.04
2016-12-12T05:48:40.078Z,923.05
2016-12-12T05:49:07.881Z,923.03
2016-12-12T05:49:35.737Z,923.01
2016-12-12T05:50:03.578Z,923.02
2016-12-12T05:50:31.404Z,923